| time (UTC) | temp F | wind direction | speed knots | gust knots | rain 1hr in | rain 24hr in | rain mn in | humidity % | barometer mb |
| 20260502183337 | 45 | 0.0 | 0.0 | 0.00 | 0.00 | 0.00 | 34 | ||
| 20260502182832 | 45 | 0.0 | 0.0 | 0.00 | 0.00 | 0.00 | 34 | ||
| 20260502182328 | 45 | 0.0 | 0.0 | 0.00 | 0.00 | 0.00 | 37 | ||
| 20260502181825 | 44 | 0.0 | 0.0 | 0.00 | 0.00 | 0.00 | 34 | ||
| 20260502181324 | 45 | 0.0 | 0.0 | 0.00 | 0.00 | 0.00 | 34 | ||
| 20260502180821 | 44 | 0.0 | 0.0 | 0.00 | 0.00 | 0.00 | 38 | ||
| 20260502180318 | 44 | 0.0 | 0.0 | 0.00 | 0.00 | 0.00 | 37 | ||
| 20260502170237 | 44 | 0.0 | 0.0 | 0.00 | 0.00 | 0.00 | 34 | ||
| 20260502164224 | 43 | 0.0 | 0.0 | 0.00 | 0.00 | 0.00 | 37 | ||
| 20260502163720 | 43 | 0.0 | 0.0 | 0.00 | 0.00 | 0.00 | 40 | ||
| 20260502163217 | 43 | 0.0 | 0.0 | 0.00 | 0.00 | 0.00 | 38 | ||
| 20260502162713 | 42 | 0.0 | 0.0 | 0.00 | 0.00 | 0.00 | 38 | ||
| 20260502162210 | 42 | 0.0 | 0.0 | 0.00 | 0.00 | 0.00 | 35 | ||
| 20260502161708 | 42 | 0.0 | 0.0 | 0.00 | 0.00 | 0.00 | 39 | ||
| 20260502161204 | 42 | 0.0 | 0.0 | 0.00 | 0.00 | 0.00 | 38 | ||
| 20260502160702 | 42 | 0.0 | 0.0 | 0.00 | 0.00 | 0.00 | 41 | ||
| 20260502160201 | 42 | 0.0 | 0.0 | 0.00 | 0.00 | 0.00 | 40 | ||
| 20260502152115 | 40 | 0.0 | 0.0 | 0.00 | 0.00 | 0.00 | 52 | ||
| 20260502151612 | 40 | 0.0 | 0.0 | 0.00 | 0.00 | 0.00 | 52 | ||
| 20260502151109 | 40 | 0.0 | 0.0 | 0.00 | 0.00 | 0.00 | 54 | ||
| 20260502150607 | 40 | 0.0 | 0.0 | 0.00 | 0.00 | 0.00 | 54 | ||
| 20260502130451 | 35 | 0.0 | 0.0 | 0.00 | 0.00 | 0.00 | 83 | ||
| 20260502123434 | 35 | 0.0 | 0.0 | 0.00 | 0.00 | 0.00 | 83 | ||
| 20260502122931 | 34 | 0.0 | 0.0 | 0.00 | 0.00 | 0.00 | 83 | ||
| 20260502122427 | 34 | 0.0 | 0.0 | 0.00 | 0.00 | 0.00 | 84 | ||
| 20260502121926 | 34 | 0.0 | 0.0 | 0.00 | 0.00 | 0.00 | 84 | ||
| 20260502121422 | 33 | 0.0 | 0.0 | 0.00 | 0.00 | 0.00 | 84 | ||
| 20260502120920 | 33 | 0.0 | 0.0 | 0.00 | 0.00 | 0.00 | 84 | ||
| 20260502120416 | 33 | 0.0 | 0.0 | 0.00 | 0.00 | 0.00 | 84 | ||
| 20260502115913 | 33 | 0.0 | 0.0 | 0.00 | 0.00 | 0.00 | 83 | ||
| 20260502115410 | 33 | 0.0 | 0.0 | 0.00 | 0.00 | 0.00 | 84 | ||
| 20260502114906 | 32 | 0.0 | 0.0 | 0.00 | 0.00 | 0.00 | 84 | ||
| 20260502114403 | 32 | 0.0 | 0.0 | 0.00 | 0.00 | 0.00 | 84 | ||
| 20260502113900 | 32 | 0.0 | 0.0 | 0.00 | 0.00 | 0.00 | 84 | ||
| 20260502113358 | 31 | 0.0 | 0.0 | 0.00 | 0.00 | 0.00 | 84 | ||
| 20260502112856 | 31 | 0.0 | 0.0 | 0.00 | 0.00 | 0.00 | 84 | ||
| 20260502112353 | 31 | 0.0 | 0.0 | 0.00 | 0.00 | 0.00 | 83 | ||
| 20260502111851 | 31 | 0.0 | 0.0 | 0.00 | 0.00 | 0.00 | 82 | ||
| 20260502111348 | 31 | 0.0 | 0.0 | 0.00 | 0.00 | 0.00 | 82 | ||
| 20260502110845 | 31 | 0.0 | 0.0 | 0.00 | 0.00 | 0.00 | 82 | ||
| 20260502110343 | 31 | 0.0 | 0.0 | 0.00 | 0.00 | 0.00 | 82 | ||
| 20260502105840 | 31 | 0.0 | 0.0 | 0.00 | 0.00 | 0.00 | 82 | ||
| 20260502105337 | 31 | 0.0 | 0.0 | 0.00 | 0.00 | 0.00 | 81 | ||
| 20260502104835 | 31 | 0.0 | 0.0 | 0.00 | 0.00 | 0.00 | 80 | ||
| 20260502104332 | 31 | 0.0 | 0.0 | 0.00 | 0.00 | 0.00 | 81 | ||
| 20260502103829 | 31 | 0.0 | 0.0 | 0.00 | 0.00 | 0.00 | 80 | ||
| 20260502103327 | 31 | 0.0 | 0.0 | 0.00 | 0.00 | 0.00 | 80 | ||
| 20260502102824 | 31 | 0.0 | 0.0 | 0.00 | 0.00 | 0.00 | 80 | ||
| 20260502102320 | 32 | 0.0 | 0.0 | 0.00 | 0.00 | 0.00 | 80 | ||
| 20260502101818 | 32 | 0.0 | 0.0 | 0.00 | 0.00 | 0.00 | 79 | ||
| 20260502101316 | 32 | 0.0 | 0.0 | 0.00 | 0.00 | 0.00 | 79 | ||
| 20260502100814 | 32 | 0.0 | 0.0 | 0.00 | 0.00 | 0.00 | 79 | ||
| 20260502100313 | 32 | 0.0 | 0.0 | 0.00 | 0.00 | 0.00 | 79 | ||
| 20260502091247 | 34 | 0.0 | 0.0 | 0.00 | 0.00 | 0.00 | 81 | ||
| 20260502090744 | 34 | 0.0 | 0.0 | 0.00 | 0.00 | 0.00 | 81 | ||
| 20260502090241 | 34 | 0.0 | 0.0 | 0.00 | 0.00 | 0.00 | 81 | ||
| 20260502071141 | 35 | 0.0 | 0.0 | 0.00 | 0.00 | 0.00 | 79 | ||
| 20260502070639 | 35 | 0.0 | 0.0 | 0.00 | 0.00 | 0.00 | 80 | ||
| 20260502070137 | 35 | 0.0 | 0.0 | 0.00 | 0.00 | 0.00 | 80 | ||
| 20260502065635 | 35 | 0.0 | 0.0 | 0.00 | 0.00 | 0.00 | 79 | ||
| 20260502065132 | 35 | 0.0 | 0.0 | 0.00 | 0.00 | 0.00 | 79 | ||
| 20260502064631 | 35 | 0.0 | 0.0 | 0.00 | 0.00 | 0.00 | 79 | ||
| 20260502064128 | 35 | 0.0 | 0.0 | 0.00 | 0.00 | 0.00 | 78 | ||
| 20260502063626 | 35 | 0.0 | 0.0 | 0.00 | 0.00 | 0.00 | 79 | ||
| 20260502063123 | 35 | 0.0 | 0.0 | 0.00 | 0.00 | 0.00 | 77 | ||
| 20260502062620 | 35 | 0.0 | 0.0 | 0.00 | 0.00 | 0.00 | 77 | ||
| 20260502062118 | 35 | 0.0 | 0.0 | 0.00 | 0.00 | 0.00 | 76 | ||
| 20260502061616 | 35 | 0.0 | 0.0 | 0.00 | 0.00 | 0.00 | 76 | ||
| 20260502061113 | 35 | 0.0 | 0.0 | 0.00 | 0.00 | 0.00 | 76 | ||
| 20260502060613 | 35 | 0.0 | 0.0 | 0.00 | 0.00 | 0.00 | 75 | ||
| 20260502060110 | 35 | 0.0 | 0.0 | 0.00 | 0.00 | 0.00 | 74 | ||
| 20260502055608 | 35 | 0.0 | 0.0 | 0.00 | 0.00 | 0.00 | 75 | ||
| 20260502055106 | 35 | 0.0 | 0.0 | 0.00 | 0.00 | 0.00 | 73 | ||
| 20260502054604 | 35 | 0.0 | 0.0 | 0.00 | 0.00 | 0.00 | 73 | ||
| 20260502054101 | 35 | 0.0 | 0.0 | 0.00 | 0.00 | 0.00 | 74 | ||
| 20260502053558 | 35 | 0.0 | 0.0 | 0.00 | 0.00 | 0.00 | 74 | ||
| 20260502053055 | 35 | 0.0 | 0.0 | 0.00 | 0.00 | 0.00 | 73 | ||
| 20260502052554 | 35 | 0.0 | 0.0 | 0.00 | 0.00 | 0.00 | 73 | ||
| 20260502052052 | 35 | 0.0 | 0.0 | 0.00 | 0.00 | 0.00 | 74 | ||
| 20260502051550 | 35 | 0.0 | 0.0 | 0.00 | 0.00 | 0.00 | 74 | ||
| 20260502051047 | 35 | 0.0 | 0.0 | 0.00 | 0.00 | 0.00 | 72 | ||
| 20260502050543 | 35 | 0.0 | 0.0 | 0.00 | 0.00 | 0.00 | 73 | ||
| 20260502050040 | 35 | 0.0 | 0.0 | 0.00 | 0.00 | 0.00 | 73 | ||
| 20260502045537 | 35 | 0.0 | 0.0 | 0.00 | 0.00 | 0.00 | 72 | ||
| 20260502045034 | 36 | 0.0 | 0.0 | 0.00 | 0.00 | 0.00 | 73 | ||
| 20260502044530 | 36 | 0.0 | 0.0 | 0.00 | 0.00 | 0.00 | 72 | ||
| 20260502044027 | 36 | 0.0 | 0.0 | 0.00 | 0.00 | 0.00 | 72 | ||
| 20260502043525 | 36 | 0.0 | 0.0 | 0.00 | 0.00 | 0.00 | 71 | ||
| 20260502043021 | 36 | 0.0 | 0.0 | 0.00 | 0.00 | 0.00 | 70 | ||
| 20260502042516 | 36 | 0.0 | 0.0 | 0.00 | 0.00 | 0.00 | 73 | ||
| 20260502042014 | 36 | 0.0 | 0.0 | 0.00 | 0.00 | 0.00 | 72 | ||
| 20260502041512 | 36 | 0.0 | 0.0 | 0.00 | 0.00 | 0.00 | 73 | ||
| 20260502041008 | 36 | 0.0 | 0.0 | 0.00 | 0.00 | 0.00 | 71 | ||
| 20260502040505 | 36 | 0.0 | 0.0 | 0.00 | 0.00 | 0.00 | 71 | ||
| 20260502040001 | 36 | 0.0 | 0.0 | 0.00 | 0.00 | 0.00 | 71 | ||
| 20260502035457 | 36 | 0.0 | 0.0 | 0.00 | 0.00 | 0.00 | 71 | ||
| 20260502034955 | 36 | 0.0 | 0.0 | 0.00 | 0.00 | 0.00 | 69 | ||
| 20260502034453 | 36 | 0.0 | 0.0 | 0.00 | 0.00 | 0.00 | 69 | ||
| 20260502033952 | 36 | 0.0 | 0.0 | 0.00 | 0.00 | 0.00 | 69 | ||
| 20260502033449 | 36 | 0.0 | 0.0 | 0.00 | 0.00 | 0.00 | 68 | ||
| 20260502032945 | 36 | 0.0 | 0.0 | 0.00 | 0.00 | 0.00 | 70 | ||
| 20260502032442 | 36 | 0.0 | 0.0 | 0.00 | 0.00 | 0.00 | 67 | ||
| 20260502031939 | 36 | 0.0 | 0.0 | 0.00 | 0.00 | 0.00 | 67 | ||
| 20260502031437 | 36 | 0.0 | 0.0 | 0.00 | 0.00 | 0.00 | 67 | ||
| 20260502030935 | 37 | 0.0 | 0.0 | 0.00 | 0.00 | 0.00 | 68 | ||
| 20260502030433 | 37 | 0.0 | 0.0 | 0.00 | 0.00 | 0.00 | 67 | ||
| 20260502025931 | 37 | 0.0 | 0.0 | 0.00 | 0.00 | 0.00 | 65 | ||
| 20260502025427 | 37 | 0.0 | 0.0 | 0.00 | 0.00 | 0.00 | 66 | ||
| 20260502024925 | 37 | 0.0 | 0.0 | 0.00 | 0.00 | 0.00 | 66 | ||
| 20260502024423 | 37 | 0.0 | 0.0 | 0.00 | 0.00 | 0.00 | 65 | ||
| 20260502023921 | 37 | 0.0 | 0.0 | 0.00 | 0.00 | 0.00 | 68 | ||
| 20260502023418 | 37 | 0.0 | 0.0 | 0.00 | 0.00 | 0.00 | 66 | ||
| 20260502022916 | 37 | 0.0 | 0.0 | 0.00 | 0.00 | 0.00 | 65 | ||
| 20260502022412 | 37 | 0.0 | 0.0 | 0.00 | 0.00 | 0.00 | 65 | ||
| 20260502021909 | 37 | 0.0 | 0.0 | 0.00 | 0.00 | 0.00 | 66 | ||
| 20260502021406 | 37 | 0.0 | 0.0 | 0.00 | 0.00 | 0.00 | 67 | ||
| 20260502020903 | 37 | 0.0 | 0.0 | 0.00 | 0.00 | 0.00 | 65 | ||
| 20260502020401 | 37 | 0.0 | 0.0 | 0.00 | 0.00 | 0.00 | 66 | ||
| 20260502015858 | 37 | 0.0 | 0.0 | 0.00 | 0.00 | 0.00 | 66 | ||
| 20260502015355 | 37 | 0.0 | 0.0 | 0.00 | 0.00 | 0.00 | 66 | ||
| 20260502014852 | 37 | 0.0 | 0.0 | 0.00 | 0.00 | 0.00 | 68 | ||
| 20260502014349 | 37 | 0.0 | 0.0 | 0.00 | 0.00 | 0.00 | 66 | ||
| 20260502013845 | 37 | 0.0 | 0.0 | 0.00 | 0.00 | 0.00 | 68 | ||
| 20260502013341 | 37 | 0.0 | 0.0 | 0.00 | 0.00 | 0.00 | 67 | ||
| 20260502012837 | 37 | 0.0 | 0.0 | 0.00 | 0.00 | 0.00 | 68 | ||
| 20260502012336 | 37 | 0.0 | 0.0 | 0.00 | 0.00 | 0.00 | 67 | ||
| 20260502011832 | 37 | 0.0 | 0.0 | 0.00 | 0.00 | 0.00 | 67 | ||
| 20260502011328 | 37 | 0.0 | 0.0 | 0.00 | 0.00 | 0.00 | 67 | ||
| 20260502010826 | 37 | 0.0 | 0.0 | 0.00 | 0.00 | 0.00 | 68 | ||
| 20260502010322 | 37 | 0.0 | 0.0 | 0.00 | 0.00 | 0.00 | 67 | ||
| 20260502005819 | 37 | 0.0 | 0.0 | 0.00 | 0.00 | 0.00 | 66 | ||
| 20260502005318 | 37 | 0.0 | 0.0 | 0.00 | 0.00 | 0.00 | 66 | ||
| 20260502004814 | 37 | 0.0 | 0.0 | 0.00 | 0.00 | 0.00 | 67 | ||
| 20260502004310 | 37 | 0.0 | 0.0 | 0.00 | 0.00 | 0.00 | 68 | ||
| 20260502003808 | 37 | 0.0 | 0.0 | 0.00 | 0.00 | 0.00 | 66 | ||
| 20260502003305 | 37 | 0.0 | 0.0 | 0.00 | 0.00 | 0.00 | 65 | ||
| 20260502002800 | 37 | 0.0 | 0.0 | 0.00 | 0.00 | 0.00 | 66 | ||
| 20260502002259 | 37 | 0.0 | 0.0 | 0.00 | 0.00 | 0.00 | 66 | ||
| 20260502001755 | 37 | 0.0 | 0.0 | 0.00 | 0.00 | 0.00 | 67 | ||
| 20260502001254 | 37 | 0.0 | 0.0 | 0.00 | 0.00 | 0.00 | 65 | ||
| 20260502000751 | 37 | 0.0 | 0.0 | 0.00 | 0.00 | 0.00 | 65 | ||
| 20260502000249 | 37 | 0.0 | 0.0 | 0.00 | 0.00 | 0.00 | 65 | ||
| 20260501235744 | 37 | 0.0 | 0.0 | 0.00 | 0.00 | 0.00 | 64 | ||
| 20260501235240 | 37 | 0.0 | 0.0 | 0.00 | 0.00 | 0.00 | 64 | ||
| 20260501234736 | 38 | 0.0 | 0.0 | 0.00 | 0.00 | 0.00 | 62 | ||
| 20260501234233 | 38 | 0.0 | 0.0 | 0.00 | 0.00 | 0.00 | 63 | ||
| 20260501233732 | 38 | 0.0 | 0.0 | 0.00 | 0.00 | 0.00 | 61 | ||
| 20260501233229 | 38 | 0.0 | 0.0 | 0.00 | 0.00 | 0.00 | 63 | ||
| 20260501232724 | 38 | 0.0 | 0.0 | 0.00 | 0.00 | 0.00 | 61 | ||
| 20260501232222 | 38 | 0.0 | 0.0 | 0.00 | 0.00 | 0.00 | 64 | ||
| 20260501231719 | 38 | 0.0 | 0.0 | 0.00 | 0.00 | 0.00 | 65 | ||
| 20260501231217 | 38 | 0.0 | 0.0 | 0.00 | 0.00 | 0.00 | 65 | ||
| 20260501230715 | 38 | 0.0 | 0.0 | 0.00 | 0.00 | 0.00 | 64 | ||
| 20260501230213 | 38 | 0.0 | 0.0 | 0.00 | 0.00 | 0.00 | 61 | ||
| 20260501225711 | 38 | 0.0 | 0.0 | 0.00 | 0.00 | 0.00 | 65 | ||
| 20260501225208 | 38 | 0.0 | 0.0 | 0.00 | 0.00 | 0.00 | 63 | ||
| 20260501224703 | 38 | 0.0 | 0.0 | 0.00 | 0.00 | 0.00 | 60 | ||
| 20260501224201 | 38 | 0.0 | 0.0 | 0.00 | 0.00 | 0.00 | 59 | ||
| 20260501223657 | 38 | 0.0 | 0.0 | 0.00 | 0.00 | 0.00 | 59 | ||
| 20260501223154 | 38 | 0.0 | 0.0 | 0.00 | 0.00 | 0.00 | 60 | ||
| 20260501222650 | 39 | 0.0 | 0.0 | 0.00 | 0.00 | 0.00 | 59 | ||
| 20260501222147 | 39 | 0.0 | 0.0 | 0.00 | 0.00 | 0.00 | 59 | ||
| 20260501221644 | 39 | 0.0 | 0.0 | 0.00 | 0.00 | 0.00 | 59 | ||
| 20260501221141 | 39 | 0.0 | 0.0 | 0.00 | 0.00 | 0.00 | 58 | ||
| 20260501220639 | 39 | 0.0 | 0.0 | 0.00 | 0.00 | 0.00 | 57 | ||
| 20260501220136 | 39 | 0.0 | 0.0 | 0.00 | 0.00 | 0.00 | 56 | ||
| 20260501215632 | 39 | 0.0 | 0.0 | 0.00 | 0.00 | 0.00 | 56 | ||
| 20260501215128 | 39 | 0.0 | 0.0 | 0.00 | 0.00 | 0.00 | 57 | ||
| 20260501214623 | 39 | 0.0 | 0.0 | 0.00 | 0.00 | 0.00 | 54 | ||
| 20260501214118 | 40 | 0.0 | 0.0 | 0.00 | 0.00 | 0.00 | 56 | ||
| 20260501213616 | 40 | 0.0 | 0.0 | 0.00 | 0.00 | 0.00 | 54 | ||
| 20260501213112 | 40 | 0.0 | 0.0 | 0.00 | 0.00 | 0.00 | 55 | ||
| 20260501212609 | 40 | 0.0 | 0.0 | 0.00 | 0.00 | 0.00 | 56 | ||
| 20260501212105 | 40 | 0.0 | 0.0 | 0.00 | 0.00 | 0.00 | 53 | ||
| 20260501211602 | 40 | 0.0 | 0.0 | 0.00 | 0.00 | 0.00 | 53 | ||
| 20260501211100 | 40 | 0.0 | 0.0 | 0.00 | 0.00 | 0.00 | 57 | ||
| 20260501210556 | 40 | 0.0 | 0.0 | 0.00 | 0.00 | 0.00 | 59 | ||
| 20260501210053 | 40 | 0.0 | 0.0 | 0.00 | 0.00 | 0.00 | 57 | ||
| 20260501205549 | 40 | 0.0 | 0.0 | 0.00 | 0.00 | 0.00 | 54 | ||
| 20260501205047 | 40 | 0.0 | 0.0 | 0.00 | 0.00 | 0.00 | 59 | ||
| 20260501204543 | 40 | 0.0 | 0.0 | 0.00 | 0.00 | 0.00 | 58 | ||
| 20260501204039 | 40 | 0.0 | 0.0 | 0.00 | 0.00 | 0.00 | 60 | ||
| 20260501203536 | 40 | 0.0 | 0.0 | 0.00 | 0.00 | 0.00 | 57 | ||
| 20260501203034 | 40 | 0.0 | 0.0 | 0.00 | 0.00 | 0.00 | 57 | ||
| 20260501202531 | 40 | 0.0 | 0.0 | 0.00 | 0.00 | 0.00 | 60 | ||
| 20260501202027 | 40 | 0.0 | 0.0 | 0.00 | 0.00 | 0.00 | 56 | ||
| 20260501201525 | 39 | 0.0 | 0.0 | 0.00 | 0.00 | 0.00 | 56 | ||
| 20260501201021 | 39 | 0.0 | 0.0 | 0.00 | 0.00 | 0.00 | 56 | ||
| 20260501200518 | 39 | 0.0 | 0.0 | 0.00 | 0.00 | 0.00 | 59 | ||
| 20260501200015 | 39 | 0.0 | 0.0 | 0.00 | 0.00 | 0.00 | 61 | ||
| 20260501195512 | 39 | 0.0 | 0.0 | 0.00 | 0.00 | 0.00 | 58 | ||
| 20260501195008 | 39 | 0.0 | 0.0 | 0.00 | 0.00 | 0.00 | 60 | ||
| 20260501194503 | 39 | 0.0 | 0.0 | 0.00 | 0.00 | 0.00 | 59 | ||
| 20260501193959 | 39 | 0.0 | 0.0 | 0.00 | 0.00 | 0.00 | 59 | ||
| 20260501193458 | 39 | 0.0 | 0.0 | 0.00 | 0.00 | 0.00 | 61 | ||
| 20260501192955 | 38 | 0.0 | 0.0 | 0.00 | 0.00 | 0.00 | 63 | ||
| 20260501192452 | 38 | 0.0 | 0.0 | 0.00 | 0.00 | 0.00 | 66 | ||
| 20260501191949 | 38 | 0.0 | 0.0 | 0.00 | 0.00 | 0.00 | 68 | ||
| 20260501191447 | 38 | 0.0 | 0.0 | 0.00 | 0.00 | 0.00 | 65 | ||
| 20260501190944 | 38 | 0.0 | 0.0 | 0.00 | 0.00 | 0.00 | 66 | ||
| 20260501190439 | 38 | 0.0 | 0.0 | 0.00 | 0.00 | 0.00 | 69 | ||
| 20260501185935 | 38 | 0.0 | 0.0 | 0.00 | 0.00 | 0.00 | 70 | ||
| 20260501185431 | 38 | 0.0 | 0.0 | 0.00 | 0.00 | 0.00 | 70 | ||
| 20260501184927 | 38 | 0.0 | 0.0 | 0.00 | 0.00 | 0.00 | 70 | ||
| 20260501184424 | 38 | 0.0 | 0.0 | 0.00 | 0.00 | 0.00 | 69 | ||
| 20260501183918 | 38 | 0.0 | 0.0 | 0.00 | 0.00 | 0.00 | 67 |